sensor_id;sensor_type;location;lat;lon;timestamp;temperature;humidity
14614;DHT22;7393;51.446;6.800;2023-11-19T00:02:26;10.70;35.00
14614;DHT22;7393;51.446;6.800;2023-11-19T00:04:53;10.70;35.20
14614;DHT22;7393;51.446;6.800;2023-11-19T00:07:19;10.70;35.70
14614;DHT22;7393;51.446;6.800;2023-11-19T00:09:45;10.80;36.10
14614;DHT22;7393;51.446;6.800;2023-11-19T00:12:12;10.70;35.60
14614;DHT22;7393;51.446;6.800;2023-11-19T00:14:39;10.80;35.90
14614;DHT22;7393;51.446;6.800;2023-11-19T00:17:06;10.80;36.10
14614;DHT22;7393;51.446;6.800;2023-11-19T00:19:34;10.90;36.00
14614;DHT22;7393;51.446;6.800;2023-11-19T00:22:01;10.90;36.20
14614;DHT22;7393;51.446;6.800;2023-11-19T00:24:28;10.90;36.20
14614;DHT22;7393;51.446;6.800;2023-11-19T00:26:56;11.00;36.50
14614;DHT22;7393;51.446;6.800;2023-11-19T00:29:23;11.00;36.40
14614;DHT22;7393;51.446;6.800;2023-11-19T00:31:50;11.00;36.60
14614;DHT22;7393;51.446;6.800;2023-11-19T00:34:17;11.00;36.60
14614;DHT22;7393;51.446;6.800;2023-11-19T00:36:48;11.00;36.50
14614;DHT22;7393;51.446;6.800;2023-11-19T00:39:15;11.10;37.10
14614;DHT22;7393;51.446;6.800;2023-11-19T00:41:43;11.10;37.30
14614;DHT22;7393;51.446;6.800;2023-11-19T00:44:11;11.10;37.60
14614;DHT22;7393;51.446;6.800;2023-11-19T00:46:38;11.20;38.10
14614;DHT22;7393;51.446;6.800;2023-11-19T00:49:05;11.30;38.60
14614;DHT22;7393;51.446;6.800;2023-11-19T00:51:31;11.40;39.10
14614;DHT22;7393;51.446;6.800;2023-11-19T00:54:00;11.40;39.20
14614;DHT22;7393;51.446;6.800;2023-11-19T00:56:27;11.50;39.90
14614;DHT22;7393;51.446;6.800;2023-11-19T00:58:54;11.60;39.60
14614;DHT22;7393;51.446;6.800;2023-11-19T01:01:21;11.70;40.00
14614;DHT22;7393;51.446;6.800;2023-11-19T01:03:48;11.70;40.20
14614;DHT22;7393;51.446;6.800;2023-11-19T01:06:15;11.70;40.10
14614;DHT22;7393;51.446;6.800;2023-11-19T01:08:52;11.80;40.10
14614;DHT22;7393;51.446;6.800;2023-11-19T01:11:21;11.80;40.30
14614;DHT22;7393;51.446;6.800;2023-11-19T01:13:48;11.90;40.20
14614;DHT22;7393;51.446;6.800;2023-11-19T01:16:15;11.90;40.70
14614;DHT22;7393;51.446;6.800;2023-11-19T01:18:42;11.90;40.30
14614;DHT22;7393;51.446;6.800;2023-11-19T01:21:08;11.90;40.20
14614;DHT22;7393;51.446;6.800;2023-11-19T01:23:35;11.90;40.20
14614;DHT22;7393;51.446;6.800;2023-11-19T01:26:03;11.90;40.40
14614;DHT22;7393;51.446;6.800;2023-11-19T01:28:32;12.00;40.60
14614;DHT22;7393;51.446;6.800;2023-11-19T01:30:59;12.00;40.70
14614;DHT22;7393;51.446;6.800;2023-11-19T01:33:25;12.00;40.60
14614;DHT22;7393;51.446;6.800;2023-11-19T01:35:53;12.00;40.60
14614;DHT22;7393;51.446;6.800;2023-11-19T01:38:20;12.00;40.50
14614;DHT22;7393;51.446;6.800;2023-11-19T01:40:46;12.00;40.30
14614;DHT22;7393;51.446;6.800;2023-11-19T01:43:33;12.00;40.40
14614;DHT22;7393;51.446;6.800;2023-11-19T01:46:00;12.00;40.50
14614;DHT22;7393;51.446;6.800;2023-11-19T01:48:27;12.10;40.60
14614;DHT22;7393;51.446;6.800;2023-11-19T01:50:54;12.10;40.80
14614;DHT22;7393;51.446;6.800;2023-11-19T01:53:21;12.10;40.70
14614;DHT22;7393;51.446;6.800;2023-11-19T01:55:49;12.10;40.60
14614;DHT22;7393;51.446;6.800;2023-11-19T01:58:18;12.20;40.50
14614;DHT22;7393;51.446;6.800;2023-11-19T02:00:46;12.20;40.20
14614;DHT22;7393;51.446;6.800;2023-11-19T02:03:14;12.20;40.40
14614;DHT22;7393;51.446;6.800;2023-11-19T02:05:41;12.30;40.30
14614;DHT22;7393;51.446;6.800;2023-11-19T02:08:08;12.30;39.60
14614;DHT22;7393;51.446;6.800;2023-11-19T02:10:35;12.30;39.30
14614;DHT22;7393;51.446;6.800;2023-11-19T02:13:02;12.30;39.90
14614;DHT22;7393;51.446;6.800;2023-11-19T02:15:31;12.30;39.20
14614;DHT22;7393;51.446;6.800;2023-11-19T02:18:17;12.30;39.20
14614;DHT22;7393;51.446;6.800;2023-11-19T02:20:44;12.30;39.20
14614;DHT22;7393;51.446;6.800;2023-11-19T02:23:11;12.30;39.10
14614;DHT22;7393;51.446;6.800;2023-11-19T02:25:38;12.30;38.70
14614;DHT22;7393;51.446;6.800;2023-11-19T02:28:08;12.30;38.70
14614;DHT22;7393;51.446;6.800;2023-11-19T02:30:37;12.30;38.60
14614;DHT22;7393;51.446;6.800;2023-11-19T02:33:04;12.30;38.40
14614;DHT22;7393;51.446;6.800;2023-11-19T02:35:32;12.30;38.30
14614;DHT22;7393;51.446;6.800;2023-11-19T02:37:59;12.30;38.40
14614;DHT22;7393;51.446;6.800;2023-11-19T02:40:26;12.40;38.20
14614;DHT22;7393;51.446;6.800;2023-11-19T02:42:53;12.40;37.50
14614;DHT22;7393;51.446;6.800;2023-11-19T02:45:21;12.40;36.70
14614;DHT22;7393;51.446;6.800;2023-11-19T02:47:48;12.40;36.70
14614;DHT22;7393;51.446;6.800;2023-11-19T02:50:17;12.40;36.80
14614;DHT22;7393;51.446;6.800;2023-11-19T02:52:51;12.40;36.60
14614;DHT22;7393;51.446;6.800;2023-11-19T02:55:18;12.40;36.10
14614;DHT22;7393;51.446;6.800;2023-11-19T02:57:46;12.40;36.40
14614;DHT22;7393;51.446;6.800;2023-11-19T03:00:15;12.50;35.90
14614;DHT22;7393;51.446;6.800;2023-11-19T03:02:44;12.50;35.50
14614;DHT22;7393;51.446;6.800;2023-11-19T03:05:12;12.50;35.60
14614;DHT22;7393;51.446;6.800;2023-11-19T03:07:40;12.50;35.80
14614;DHT22;7393;51.446;6.800;2023-11-19T03:10:09;12.40;35.80
14614;DHT22;7393;51.446;6.800;2023-11-19T03:12:39;12.40;36.10
14614;DHT22;7393;51.446;6.800;2023-11-19T03:15:07;12.50;36.70
14614;DHT22;7393;51.446;6.800;2023-11-19T03:17:35;12.50;36.40
14614;DHT22;7393;51.446;6.800;2023-11-19T03:20:05;12.50;36.80
14614;DHT22;7393;51.446;6.800;2023-11-19T03:22:36;12.50;36.40
14614;DHT22;7393;51.446;6.800;2023-11-19T03:25:04;12.60;35.90
14614;DHT22;7393;51.446;6.800;2023-11-19T03:27:34;12.60;34.30
14614;DHT22;7393;51.446;6.800;2023-11-19T03:30:01;12.60;32.50
14614;DHT22;7393;51.446;6.800;2023-11-19T03:32:28;12.60;30.00
14614;DHT22;7393;51.446;6.800;2023-11-19T03:34:54;12.60;27.90
14614;DHT22;7393;51.446;6.800;2023-11-19T03:37:23;12.60;24.30
14614;DHT22;7393;51.446;6.800;2023-11-19T03:39:50;12.70;20.70
14614;DHT22;7393;51.446;6.800;2023-11-19T03:42:19;12.60;19.10
14614;DHT22;7393;51.446;6.800;2023-11-19T03:44:46;12.60;17.50
14614;DHT22;7393;51.446;6.800;2023-11-19T03:47:12;12.60;15.40
14614;DHT22;7393;51.446;6.800;2023-11-19T03:49:40;12.60;13.80
14614;DHT22;7393;51.446;6.800;2023-11-19T03:52:08;12.60;12.60
14614;DHT22;7393;51.446;6.800;2023-11-19T03:54:36;12.60;11.00
14614;DHT22;7393;51.446;6.800;2023-11-19T03:57:03;12.60;6.90
14614;DHT22;7393;51.446;6.800;2023-11-19T03:59:30;12.60;3.10
14614;DHT22;7393;51.446;6.800;2023-11-19T04:01:59;12.60;1.20
14614;DHT22;7393;51.446;6.800;2023-11-19T04:04:28;12.60;1.00
14614;DHT22;7393;51.446;6.800;2023-11-19T04:06:55;12.50;1.00
14614;DHT22;7393;51.446;6.800;2023-11-19T04:09:23;12.50;1.00
14614;DHT22;7393;51.446;6.800;2023-11-19T04:11:51;12.50;1.00
14614;DHT22;7393;51.446;6.800;2023-11-19T04:14:18;12.50;1.00
14614;DHT22;7393;51.446;6.800;2023-11-19T04:16:45;12.50;1.00
14614;DHT22;7393;51.446;6.800;2023-11-19T04:19:12;12.40;1.00
14614;DHT22;7393;51.446;6.800;2023-11-19T04:21:40;12.40;1.00
14614;DHT22;7393;51.446;6.800;2023-11-19T04:24:08;12.40;1.00
14614;DHT22;7393;51.446;6.800;2023-11-19T04:26:40;12.40;1.00
14614;DHT22;7393;51.446;6.800;2023-11-19T04:29:08;12.50;1.00
14614;DHT22;7393;51.446;6.800;2023-11-19T04:31:36;12.50;1.00
14614;DHT22;7393;51.446;6.800;2023-11-19T04:34:03;12.50;1.00
14614;DHT22;7393;51.446;6.800;2023-11-19T04:36:30;12.50;1.00
14614;DHT22;7393;51.446;6.800;2023-11-19T04:38:57;12.50;1.00
14614;DHT22;7393;51.446;6.800;2023-11-19T04:41:25;12.50;1.00
14614;DHT22;7393;51.446;6.800;2023-11-19T04:43:53;12.50;1.00
14614;DHT22;7393;51.446;6.800;2023-11-19T04:46:21;12.50;1.00
14614;DHT22;7393;51.446;6.800;2023-11-19T04:48:49;12.50;1.00
14614;DHT22;7393;51.446;6.800;2023-11-19T04:51:15;12.50;1.00
14614;DHT22;7393;51.446;6.800;2023-11-19T04:53:42;12.50;1.00
14614;DHT22;7393;51.446;6.800;2023-11-19T04:56:10;12.40;1.00
14614;DHT22;7393;51.446;6.800;2023-11-19T04:58:37;12.50;1.00
14614;DHT22;7393;51.446;6.800;2023-11-19T05:01:04;12.40;1.00
14614;DHT22;7393;51.446;6.800;2023-11-19T05:03:32;12.40;1.00
14614;DHT22;7393;51.446;6.800;2023-11-19T05:05:59;12.40;1.00
14614;DHT22;7393;51.446;6.800;2023-11-19T05:08:26;12.40;1.00
14614;DHT22;7393;51.446;6.800;2023-11-19T05:10:52;12.40;1.00
14614;DHT22;7393;51.446;6.800;2023-11-19T05:13:20;12.40;1.00
14614;DHT22;7393;51.446;6.800;2023-11-19T05:15:47;12.40;1.00
14614;DHT22;7393;51.446;6.800;2023-11-19T05:18:14;12.40;1.00
14614;DHT22;7393;51.446;6.800;2023-11-19T05:20:42;12.40;1.00
14614;DHT22;7393;51.446;6.800;2023-11-19T05:23:09;12.40;1.00
14614;DHT22;7393;51.446;6.800;2023-11-19T05:25:36;12.30;1.00
14614;DHT22;7393;51.446;6.800;2023-11-19T05:28:03;12.30;1.00
14614;DHT22;7393;51.446;6.800;2023-11-19T05:30:30;12.30;1.00
14614;DHT22;7393;51.446;6.800;2023-11-19T05:32:57;12.40;1.00
14614;DHT22;7393;51.446;6.800;2023-11-19T05:35:24;12.40;1.00
14614;DHT22;7393;51.446;6.800;2023-11-19T05:37:52;12.40;1.00
14614;DHT22;7393;51.446;6.800;2023-11-19T05:40:19;12.40;1.00
14614;DHT22;7393;51.446;6.800;2023-11-19T05:42:46;12.40;1.00
14614;DHT22;7393;51.446;6.800;2023-11-19T05:45:13;12.40;1.00
14614;DHT22;7393;51.446;6.800;2023-11-19T05:47:40;12.40;1.00
14614;DHT22;7393;51.446;6.800;2023-11-19T05:50:08;12.40;1.00
14614;DHT22;7393;51.446;6.800;2023-11-19T05:52:35;12.50;1.00
14614;DHT22;7393;51.446;6.800;2023-11-19T05:55:04;12.50;1.00
14614;DHT22;7393;51.446;6.800;2023-11-19T05:57:35;12.50;1.00
14614;DHT22;7393;51.446;6.800;2023-11-19T06:00:02;12.40;1.00
14614;DHT22;7393;51.446;6.800;2023-11-19T06:02:32;12.40;1.00
14614;DHT22;7393;51.446;6.800;2023-11-19T06:04:59;12.40;1.00
14614;DHT22;7393;51.446;6.800;2023-11-19T06:07:26;12.40;1.00
14614;DHT22;7393;51.446;6.800;2023-11-19T06:09:52;12.40;1.00
14614;DHT22;7393;51.446;6.800;2023-11-19T06:12:20;12.40;1.00
14614;DHT22;7393;51.446;6.800;2023-11-19T06:14:47;12.40;1.00
14614;DHT22;7393;51.446;6.800;2023-11-19T06:17:14;12.40;1.00
14614;DHT22;7393;51.446;6.800;2023-11-19T06:19:41;12.40;1.00
14614;DHT22;7393;51.446;6.800;2023-11-19T06:22:07;12.30;1.00
14614;DHT22;7393;51.446;6.800;2023-11-19T06:24:34;12.30;1.00
14614;DHT22;7393;51.446;6.800;2023-11-19T06:27:01;12.40;1.00
14614;DHT22;7393;51.446;6.800;2023-11-19T06:29:29;12.30;1.00
14614;DHT22;7393;51.446;6.800;2023-11-19T06:31:56;12.30;1.00
14614;DHT22;7393;51.446;6.800;2023-11-19T06:34:23;12.30;1.00
14614;DHT22;7393;51.446;6.800;2023-11-19T06:36:50;12.30;1.00
14614;DHT22;7393;51.446;6.800;2023-11-19T06:39:16;12.30;1.00
14614;DHT22;7393;51.446;6.800;2023-11-19T06:41:45;12.30;1.00
14614;DHT22;7393;51.446;6.800;2023-11-19T06:44:11;12.30;1.00
14614;DHT22;7393;51.446;6.800;2023-11-19T06:46:40;12.20;1.00
14614;DHT22;7393;51.446;6.800;2023-11-19T06:49:07;12.20;1.00
14614;DHT22;7393;51.446;6.800;2023-11-19T06:51:34;12.20;1.00
14614;DHT22;7393;51.446;6.800;2023-11-19T06:54:01;12.30;1.00
14614;DHT22;7393;51.446;6.800;2023-11-19T06:56:27;12.30;1.00
14614;DHT22;7393;51.446;6.800;2023-11-19T06:58:54;12.20;1.00
14614;DHT22;7393;51.446;6.800;2023-11-19T07:01:21;12.20;1.00
14614;DHT22;7393;51.446;6.800;2023-11-19T07:03:49;12.10;1.00
14614;DHT22;7393;51.446;6.800;2023-11-19T07:06:17;12.10;1.00
14614;DHT22;7393;51.446;6.800;2023-11-19T07:08:44;12.10;1.00
14614;DHT22;7393;51.446;6.800;2023-11-19T07:11:11;12.10;1.00
14614;DHT22;7393;51.446;6.800;2023-11-19T07:13:40;12.00;1.00
14614;DHT22;7393;51.446;6.800;2023-11-19T07:16:07;12.00;1.00
14614;DHT22;7393;51.446;6.800;2023-11-19T07:18:36;12.00;1.00
14614;DHT22;7393;51.446;6.800;2023-11-19T07:21:06;12.00;1.00
14614;DHT22;7393;51.446;6.800;2023-11-19T07:23:35;12.00;1.00
14614;DHT22;7393;51.446;6.800;2023-11-19T07:26:05;11.90;1.00
14614;DHT22;7393;51.446;6.800;2023-11-19T07:28:33;11.90;1.00
14614;DHT22;7393;51.446;6.800;2023-11-19T07:31:00;11.90;1.00
14614;DHT22;7393;51.446;6.800;2023-11-19T07:33:27;11.90;1.00
14614;DHT22;7393;51.446;6.800;2023-11-19T07:35:55;11.90;1.00
14614;DHT22;7393;51.446;6.800;2023-11-19T07:38:23;11.80;1.00
14614;DHT22;7393;51.446;6.800;2023-11-19T07:40:50;11.90;1.00
14614;DHT22;7393;51.446;6.800;2023-11-19T07:43:17;11.90;1.00
14614;DHT22;7393;51.446;6.800;2023-11-19T07:45:43;11.90;1.00
14614;DHT22;7393;51.446;6.800;2023-11-19T07:48:11;11.80;1.00
14614;DHT22;7393;51.446;6.800;2023-11-19T07:50:38;11.90;1.00
14614;DHT22;7393;51.446;6.800;2023-11-19T07:53:06;11.90;1.00
14614;DHT22;7393;51.446;6.800;2023-11-19T07:55:34;11.80;1.00
14614;DHT22;7393;51.446;6.800;2023-11-19T07:58:01;11.80;1.00
14614;DHT22;7393;51.446;6.800;2023-11-19T08:00:28;11.80;1.00
14614;DHT22;7393;51.446;6.800;2023-11-19T08:02:55;11.80;1.00
14614;DHT22;7393;51.446;6.800;2023-11-19T08:05:21;11.80;1.00
14614;DHT22;7393;51.446;6.800;2023-11-19T08:07:50;11.80;1.00
14614;DHT22;7393;51.446;6.800;2023-11-19T08:10:17;11.90;1.00
14614;DHT22;7393;51.446;6.800;2023-11-19T08:12:45;11.90;1.00
14614;DHT22;7393;51.446;6.800;2023-11-19T08:15:12;11.90;1.00
14614;DHT22;7393;51.446;6.800;2023-11-19T08:17:39;11.90;1.00
14614;DHT22;7393;51.446;6.800;2023-11-19T08:20:07;11.90;1.00
14614;DHT22;7393;51.446;6.800;2023-11-19T08:22:35;11.90;1.00
14614;DHT22;7393;51.446;6.800;2023-11-19T08:25:03;12.00;1.00
14614;DHT22;7393;51.446;6.800;2023-11-19T08:27:30;12.00;1.00
14614;DHT22;7393;51.446;6.800;2023-11-19T08:29:58;12.00;1.00
14614;DHT22;7393;51.446;6.800;2023-11-19T08:32:25;12.00;1.00
14614;DHT22;7393;51.446;6.800;2023-11-19T08:34:53;12.00;1.00
14614;DHT22;7393;51.446;6.800;2023-11-19T08:37:20;12.00;1.00
14614;DHT22;7393;51.446;6.800;2023-11-19T08:39:47;12.00;1.00
14614;DHT22;7393;51.446;6.800;2023-11-19T08:42:14;12.10;1.00
14614;DHT22;7393;51.446;6.800;2023-11-19T08:44:41;12.10;1.00
14614;DHT22;7393;51.446;6.800;2023-11-19T08:47:11;12.20;1.00
14614;DHT22;7393;51.446;6.800;2023-11-19T08:49:38;12.20;1.00
14614;DHT22;7393;51.446;6.800;2023-11-19T08:52:05;12.20;1.00
14614;DHT22;7393;51.446;6.800;2023-11-19T08:54:33;12.30;1.00
14614;DHT22;7393;51.446;6.800;2023-11-19T08:57:00;12.30;1.00
14614;DHT22;7393;51.446;6.800;2023-11-19T08:59:28;12.30;1.00
14614;DHT22;7393;51.446;6.800;2023-11-19T09:01:55;12.40;1.00
14614;DHT22;7393;51.446;6.800;2023-11-19T09:04:23;12.40;1.00
14614;DHT22;7393;51.446;6.800;2023-11-19T09:06:50;12.40;1.00
14614;DHT22;7393;51.446;6.800;2023-11-19T09:09:17;12.50;1.00
14614;DHT22;7393;51.446;6.800;2023-11-19T09:11:44;12.50;1.00
14614;DHT22;7393;51.446;6.800;2023-11-19T09:14:11;12.50;1.00
14614;DHT22;7393;51.446;6.800;2023-11-19T09:16:37;12.50;1.00
14614;DHT22;7393;51.446;6.800;2023-11-19T09:19:04;12.50;1.00
14614;DHT22;7393;51.446;6.800;2023-11-19T09:21:32;12.50;1.00
14614;DHT22;7393;51.446;6.800;2023-11-19T09:24:03;12.50;1.00
14614;DHT22;7393;51.446;6.800;2023-11-19T09:26:30;12.50;1.00
14614;DHT22;7393;51.446;6.800;2023-11-19T09:28:57;12.60;1.00
14614;DHT22;7393;51.446;6.800;2023-11-19T09:31:24;12.60;1.00
14614;DHT22;7393;51.446;6.800;2023-11-19T09:33:51;12.60;1.00
14614;DHT22;7393;51.446;6.800;2023-11-19T09:36:17;12.60;1.00
14614;DHT22;7393;51.446;6.800;2023-11-19T09:38:46;12.60;1.00
14614;DHT22;7393;51.446;6.800;2023-11-19T09:41:13;12.70;1.00
14614;DHT22;7393;51.446;6.800;2023-11-19T09:43:40;12.80;1.00
14614;DHT22;7393;51.446;6.800;2023-11-19T09:46:10;12.90;99.90
14614;DHT22;7393;51.446;6.800;2023-11-19T09:48:38;12.90;99.90
14614;DHT22;7393;51.446;6.800;2023-11-19T09:51:06;12.90;99.90
14614;DHT22;7393;51.446;6.800;2023-11-19T09:53:33;13.00;99.90
14614;DHT22;7393;51.446;6.800;2023-11-19T09:56:02;13.00;97.90
14614;DHT22;7393;51.446;6.800;2023-11-19T09:58:29;13.10;99.90
14614;DHT22;7393;51.446;6.800;2023-11-19T10:00:56;13.00;99.90
14614;DHT22;7393;51.446;6.800;2023-11-19T10:03:25;13.10;1.00
14614;DHT22;7393;51.446;6.800;2023-11-19T10:05:54;13.10;1.00
14614;DHT22;7393;51.446;6.800;2023-11-19T10:08:21;13.10;1.00
14614;DHT22;7393;51.446;6.800;2023-11-19T10:10:48;13.10;94.20
14614;DHT22;7393;51.446;6.800;2023-11-19T10:13:16;13.10;99.90
14614;DHT22;7393;51.446;6.800;2023-11-19T10:15:43;13.10;1.00
14614;DHT22;7393;51.446;6.800;2023-11-19T10:18:10;13.10;1.00
14614;DHT22;7393;51.446;6.800;2023-11-19T10:20:37;13.10;1.00
14614;DHT22;7393;51.446;6.800;2023-11-19T10:23:04;13.20;1.00
14614;DHT22;7393;51.446;6.800;2023-11-19T10:25:33;13.20;99.90
14614;DHT22;7393;51.446;6.800;2023-11-19T10:28:00;13.20;1.00
14614;DHT22;7393;51.446;6.800;2023-11-19T10:30:29;13.20;1.00
14614;DHT22;7393;51.446;6.800;2023-11-19T10:33:06;13.20;99.90
14614;DHT22;7393;51.446;6.800;2023-11-19T10:35:33;13.20;99.90
14614;DHT22;7393;51.446;6.800;2023-11-19T10:38:01;13.20;99.90
14614;DHT22;7393;51.446;6.800;2023-11-19T10:40:49;13.30;1.00
14614;DHT22;7393;51.446;6.800;2023-11-19T10:43:16;13.30;1.00
14614;DHT22;7393;51.446;6.800;2023-11-19T10:45:45;13.40;6.40
14614;DHT22;7393;51.446;6.800;2023-11-19T10:48:12;13.40;1.00
14614;DHT22;7393;51.446;6.800;2023-11-19T10:50:40;13.50;99.90
14614;DHT22;7393;51.446;6.800;2023-11-19T10:53:09;13.50;99.90
14614;DHT22;7393;51.446;6.800;2023-11-19T10:55:37;13.50;99.90
14614;DHT22;7393;51.446;6.800;2023-11-19T10:58:05;13.50;99.90
14614;DHT22;7393;51.446;6.800;2023-11-19T11:00:38;13.50;53.70
14614;DHT22;7393;51.446;6.800;2023-11-19T11:03:11;13.50;99.90
14614;DHT22;7393;51.446;6.800;2023-11-19T11:05:38;13.60;1.00
14614;DHT22;7393;51.446;6.800;2023-11-19T11:08:06;13.60;99.90
14614;DHT22;7393;51.446;6.800;2023-11-19T11:10:37;13.60;1.00
14614;DHT22;7393;51.446;6.800;2023-11-19T11:13:05;13.70;1.00
14614;DHT22;7393;51.446;6.800;2023-11-19T11:15:33;13.70;99.90
14614;DHT22;7393;51.446;6.800;2023-11-19T11:18:02;13.70;99.90
14614;DHT22;7393;51.446;6.800;2023-11-19T11:20:31;13.80;99.90
14614;DHT22;7393;51.446;6.800;2023-11-19T11:26:23;13.80;99.90
14614;DHT22;7393;51.446;6.800;2023-11-19T11:28:58;13.80;99.90
14614;DHT22;7393;51.446;6.800;2023-11-19T11:31:36;13.80;1.00
14614;DHT22;7393;51.446;6.800;2023-11-19T11:34:25;13.90;1.00
14614;DHT22;7393;51.446;6.800;2023-11-19T11:37:05;14.00;1.00
14614;DHT22;7393;51.446;6.800;2023-11-19T11:39:34;14.00;1.00
14614;DHT22;7393;51.446;6.800;2023-11-19T11:42:36;14.10;1.00
14614;DHT22;7393;51.446;6.800;2023-11-19T11:45:04;14.10;1.00
14614;DHT22;7393;51.446;6.800;2023-11-19T11:48:10;14.00;1.00
14614;DHT22;7393;51.446;6.800;2023-11-19T11:50:54;14.10;31.80
14614;DHT22;7393;51.446;6.800;2023-11-19T11:53:23;14.10;99.90
14614;DHT22;7393;51.446;6.800;2023-11-19T11:55:55;14.10;1.00
14614;DHT22;7393;51.446;6.800;2023-11-19T11:58:35;14.10;1.00
14614;DHT22;7393;51.446;6.800;2023-11-19T12:01:04;14.10;99.90
14614;DHT22;7393;51.446;6.800;2023-11-19T12:03:32;14.00;1.00
14614;DHT22;7393;51.446;6.800;2023-11-19T12:05:58;14.10;99.90
14614;DHT22;7393;51.446;6.800;2023-11-19T12:08:28;14.10;99.90
14614;DHT22;7393;51.446;6.800;2023-11-19T12:10:56;14.10;99.90
14614;DHT22;7393;51.446;6.800;2023-11-19T12:13:29;14.10;99.90
14614;DHT22;7393;51.446;6.800;2023-11-19T12:16:10;14.20;1.00
14614;DHT22;7393;51.446;6.800;2023-11-19T12:18:39;14.20;99.90
14614;DHT22;7393;51.446;6.800;2023-11-19T12:21:07;14.10;1.00
14614;DHT22;7393;51.446;6.800;2023-11-19T12:23:44;14.10;1.00
14614;DHT22;7393;51.446;6.800;2023-11-19T12:26:32;14.10;40.60
14614;DHT22;7393;51.446;6.800;2023-11-19T12:29:00;14.20;1.00
14614;DHT22;7393;51.446;6.800;2023-11-19T12:31:29;14.20;1.00
14614;DHT22;7393;51.446;6.800;2023-11-19T12:33:57;14.20;76.00
14614;DHT22;7393;51.446;6.800;2023-11-19T12:36:23;14.20;99.90
14614;DHT22;7393;51.446;6.800;2023-11-19T12:38:52;14.20;99.90
14614;DHT22;7393;51.446;6.800;2023-11-19T12:41:18;14.20;1.00
14614;DHT22;7393;51.446;6.800;2023-11-19T12:43:49;14.10;1.00
14614;DHT22;7393;51.446;6.800;2023-11-19T12:46:20;14.00;99.90
14614;DHT22;7393;51.446;6.800;2023-11-19T12:48:47;13.80;1.00
14614;DHT22;7393;51.446;6.800;2023-11-19T12:51:14;13.70;1.00
14614;DHT22;7393;51.446;6.800;2023-11-19T12:53:52;13.70;1.00
14614;DHT22;7393;51.446;6.800;2023-11-19T12:56:20;13.70;1.00
14614;DHT22;7393;51.446;6.800;2023-11-19T12:58:48;13.60;99.90
14614;DHT22;7393;51.446;6.800;2023-11-19T13:01:16;13.60;1.00
14614;DHT22;7393;51.446;6.800;2023-11-19T13:03:44;13.50;1.00
14614;DHT22;7393;51.446;6.800;2023-11-19T13:06:13;13.50;1.00
14614;DHT22;7393;51.446;6.800;2023-11-19T13:08:42;13.50;99.90
14614;DHT22;7393;51.446;6.800;2023-11-19T13:11:12;13.40;1.00
14614;DHT22;7393;51.446;6.800;2023-11-19T13:13:55;13.30;1.00
14614;DHT22;7393;51.446;6.800;2023-11-19T13:16:22;13.30;99.90
14614;DHT22;7393;51.446;6.800;2023-11-19T13:18:49;13.30;90.20
14614;DHT22;7393;51.446;6.800;2023-11-19T13:21:17;13.20;99.90
14614;DHT22;7393;51.446;6.800;2023-11-19T13:23:44;13.30;99.90
14614;DHT22;7393;51.446;6.800;2023-11-19T13:26:12;13.30;1.00
14614;DHT22;7393;51.446;6.800;2023-11-19T13:28:39;13.30;1.00
14614;DHT22;7393;51.446;6.800;2023-11-19T13:31:06;13.30;95.60
14614;DHT22;7393;51.446;6.800;2023-11-19T13:33:33;13.20;99.90
14614;DHT22;7393;51.446;6.800;2023-11-19T13:36:01;13.20;99.90
14614;DHT22;7393;51.446;6.800;2023-11-19T13:38:31;13.20;99.90
14614;DHT22;7393;51.446;6.800;2023-11-19T13:40:58;13.30;99.90
14614;DHT22;7393;51.446;6.800;2023-11-19T13:43:26;13.30;99.90
14614;DHT22;7393;51.446;6.800;2023-11-19T13:45:54;13.30;99.90
14614;DHT22;7393;51.446;6.800;2023-11-19T13:48:21;13.30;99.90
14614;DHT22;7393;51.446;6.800;2023-11-19T13:50:48;13.30;22.50
14614;DHT22;7393;51.446;6.800;2023-11-19T13:53:15;13.30;1.80
14614;DHT22;7393;51.446;6.800;2023-11-19T13:55:42;13.30;1.00
14614;DHT22;7393;51.446;6.800;2023-11-19T13:58:09;13.30;99.90
14614;DHT22;7393;51.446;6.800;2023-11-19T14:00:37;13.30;1.00
14614;DHT22;7393;51.446;6.800;2023-11-19T14:03:04;13.30;99.90
14614;DHT22;7393;51.446;6.800;2023-11-19T14:05:31;13.30;1.00
14614;DHT22;7393;51.446;6.800;2023-11-19T14:07:58;13.30;1.00
14614;DHT22;7393;51.446;6.800;2023-11-19T14:10:24;13.30;1.00
14614;DHT22;7393;51.446;6.800;2023-11-19T14:12:51;13.30;23.20
14614;DHT22;7393;51.446;6.800;2023-11-19T14:15:18;13.30;99.90
14614;DHT22;7393;51.446;6.800;2023-11-19T14:17:46;13.20;99.90
14614;DHT22;7393;51.446;6.800;2023-11-19T14:20:13;13.20;1.00
14614;DHT22;7393;51.446;6.800;2023-11-19T14:22:43;13.10;1.00
14614;DHT22;7393;51.446;6.800;2023-11-19T14:25:11;13.10;1.00
14614;DHT22;7393;51.446;6.800;2023-11-19T14:27:38;13.10;1.00
14614;DHT22;7393;51.446;6.800;2023-11-19T14:30:06;13.00;1.00
14614;DHT22;7393;51.446;6.800;2023-11-19T14:32:33;13.00;1.00
14614;DHT22;7393;51.446;6.800;2023-11-19T14:35:03;12.90;1.00
14614;DHT22;7393;51.446;6.800;2023-11-19T14:37:30;12.90;1.00
14614;DHT22;7393;51.446;6.800;2023-11-19T14:39:57;12.90;1.00
14614;DHT22;7393;51.446;6.800;2023-11-19T14:42:24;12.90;1.00
14614;DHT22;7393;51.446;6.800;2023-11-19T14:44:51;12.90;1.00
14614;DHT22;7393;51.446;6.800;2023-11-19T14:47:19;12.90;1.00
14614;DHT22;7393;51.446;6.800;2023-11-19T14:49:45;12.90;1.00
14614;DHT22;7393;51.446;6.800;2023-11-19T14:52:14;12.90;99.90
14614;DHT22;7393;51.446;6.800;2023-11-19T14:54:41;12.90;1.00
14614;DHT22;7393;51.446;6.800;2023-11-19T14:57:08;12.90;99.90
14614;DHT22;7393;51.446;6.800;2023-11-19T14:59:34;12.90;99.90
14614;DHT22;7393;51.446;6.800;2023-11-19T15:02:01;12.80;1.00
14614;DHT22;7393;51.446;6.800;2023-11-19T15:04:28;12.70;1.00
14614;DHT22;7393;51.446;6.800;2023-11-19T15:06:56;12.80;1.00
14614;DHT22;7393;51.446;6.800;2023-11-19T15:09:24;12.70;1.00
14614;DHT22;7393;51.446;6.800;2023-11-19T15:11:53;12.70;1.00
14614;DHT22;7393;51.446;6.800;2023-11-19T15:14:19;12.70;1.00
14614;DHT22;7393;51.446;6.800;2023-11-19T15:16:47;12.60;1.00
14614;DHT22;7393;51.446;6.800;2023-11-19T15:19:16;12.70;1.00
14614;DHT22;7393;51.446;6.800;2023-11-19T15:21:43;12.60;1.00
14614;DHT22;7393;51.446;6.800;2023-11-19T15:24:10;12.60;1.00
14614;DHT22;7393;51.446;6.800;2023-11-19T15:26:38;12.60;1.00
14614;DHT22;7393;51.446;6.800;2023-11-19T15:29:05;12.50;1.00
14614;DHT22;7393;51.446;6.800;2023-11-19T15:31:32;12.50;1.00
14614;DHT22;7393;51.446;6.800;2023-11-19T15:33:59;12.40;1.00
14614;DHT22;7393;51.446;6.800;2023-11-19T15:36:26;12.40;1.00
14614;DHT22;7393;51.446;6.800;2023-11-19T15:38:53;12.40;1.00
14614;DHT22;7393;51.446;6.800;2023-11-19T15:41:20;12.40;1.00
14614;DHT22;7393;51.446;6.800;2023-11-19T15:43:48;12.30;1.00
14614;DHT22;7393;51.446;6.800;2023-11-19T15:46:15;12.30;1.00
14614;DHT22;7393;51.446;6.800;2023-11-19T15:48:42;12.30;1.00
14614;DHT22;7393;51.446;6.800;2023-11-19T15:51:09;12.30;1.00
14614;DHT22;7393;51.446;6.800;2023-11-19T15:53:35;12.30;1.00
14614;DHT22;7393;51.446;6.800;2023-11-19T15:56:04;12.30;1.00
14614;DHT22;7393;51.446;6.800;2023-11-19T15:58:31;12.30;1.00
14614;DHT22;7393;51.446;6.800;2023-11-19T16:01:00;12.30;1.00
14614;DHT22;7393;51.446;6.800;2023-11-19T16:03:27;12.20;1.00
14614;DHT22;7393;51.446;6.800;2023-11-19T16:05:55;12.20;1.00